createdAt,value
2023-03-15T00:01:35.592Z,10.55
2023-03-15T00:04:02.383Z,13.50
2023-03-15T00:06:29.143Z,10.63
2023-03-15T00:08:56.121Z,7.97
2023-03-15T00:11:22.840Z,14.30
2023-03-15T00:13:51.598Z,10.80
2023-03-15T00:16:18.965Z,11.15
2023-03-15T00:18:47.418Z,11.60
2023-03-15T00:21:14.886Z,12.63
2023-03-15T00:23:41.592Z,11.18
2023-03-15T00:26:08.355Z,16.98
2023-03-15T00:28:35.166Z,15.15
2023-03-15T00:31:12.976Z,15.07
2023-03-15T00:33:39.720Z,14.85
2023-03-15T00:36:08.037Z,15.18
2023-03-15T00:38:36.171Z,19.65
2023-03-15T00:41:11.833Z,13.27
2023-03-15T00:43:39.099Z,15.82
2023-03-15T00:46:06.205Z,15.95
2023-03-15T00:48:35.234Z,9.82
2023-03-15T00:51:11.004Z,14.48
2023-03-15T00:53:40.268Z,12.32
2023-03-15T00:56:12.822Z,10.32
2023-03-15T00:58:40.046Z,13.48
2023-03-15T01:01:12.915Z,12.90
2023-03-15T01:03:40.844Z,13.07
2023-03-15T01:06:16.989Z,13.65
2023-03-15T01:08:44.611Z,11.77
2023-03-15T01:11:16.770Z,15.80
2023-03-15T01:13:43.626Z,13.90
2023-03-15T01:16:12.386Z,16.73
2023-03-15T01:18:39.614Z,21.08
2023-03-15T01:21:11.260Z,17.45
2023-03-15T01:23:38.395Z,18.48
2023-03-15T01:26:06.951Z,19.33
2023-03-15T01:28:33.816Z,23.23
2023-03-15T01:31:00.594Z,22.88
2023-03-15T01:33:27.675Z,28.20
2023-03-15T01:36:07.925Z,24.52
2023-03-15T01:38:35.088Z,26.13
2023-03-15T01:41:01.857Z,32.55
2023-03-15T01:43:34.465Z,29.70
2023-03-15T01:46:25.622Z,26.95
2023-03-15T01:49:04.881Z,34.97
2023-03-15T01:51:57.881Z,39.53
2023-03-15T01:54:30.374Z,33.28
2023-03-15T01:57:15.767Z,31.60
2023-03-15T01:59:54.251Z,38.47
2023-03-15T02:02:23.059Z,31.38
2023-03-15T02:04:56.436Z,35.33
2023-03-15T02:07:25.499Z,42.38
2023-03-15T02:10:08.510Z,34.47
2023-03-15T02:12:40.662Z,36.38
2023-03-15T02:15:09.169Z,36.25
2023-03-15T02:17:41.218Z,34.85
2023-03-15T02:20:27.493Z,41.15
2023-03-15T02:23:03.434Z,36.70
2023-03-15T02:25:51.842Z,26.27
2023-03-15T02:28:20.138Z,31.30
2023-03-15T02:30:48.453Z,39.47
2023-03-15T02:33:29.231Z,37.55
2023-03-15T02:36:05.985Z,34.78
2023-03-15T02:38:32.858Z,32.78
2023-03-15T02:41:00.326Z,37.45
2023-03-15T02:43:30.977Z,33.17
2023-03-15T02:45:58.186Z,40.13
2023-03-15T02:48:25.572Z,35.67
2023-03-15T02:50:52.292Z,38.03
2023-03-15T02:53:18.967Z,38.15
2023-03-15T02:55:45.669Z,33.42
2023-03-15T02:58:12.393Z,36.78
2023-03-15T03:00:39.413Z,34.83
2023-03-15T03:03:06.335Z,32.13
2023-03-15T03:05:33.056Z,31.80
2023-03-15T03:07:59.739Z,32.00
2023-03-15T03:10:26.666Z,30.77
2023-03-15T03:12:53.809Z,29.02
2023-03-15T03:15:21.196Z,33.95
2023-03-15T03:17:48.213Z,33.55
2023-03-15T03:20:15.288Z,37.65
2023-03-15T03:22:42.481Z,33.60
2023-03-15T03:25:12.537Z,39.65
2023-03-15T03:27:40.535Z,40.78
2023-03-15T03:30:09.945Z,40.38
2023-03-15T03:32:36.976Z,40.40
2023-03-15T03:35:03.778Z,37.28
2023-03-15T03:37:30.908Z,30.75
2023-03-15T03:39:58.149Z,32.55
2023-03-15T03:42:25.021Z,30.38
2023-03-15T03:44:54.026Z,30.60
2023-03-15T03:47:21.213Z,27.88
2023-03-15T03:49:47.909Z,24.27
2023-03-15T03:52:14.551Z,26.30
2023-03-15T03:54:42.745Z,26.33
2023-03-15T03:57:10.493Z,30.70
2023-03-15T03:59:37.249Z,33.20
2023-03-15T04:02:04.228Z,28.48
2023-03-15T04:04:31.082Z,29.98
2023-03-15T04:06:57.809Z,26.25
2023-03-15T04:09:25.139Z,30.92
2023-03-15T04:11:51.907Z,24.30
2023-03-15T04:14:18.704Z,27.48
2023-03-15T04:16:45.463Z,23.77
2023-03-15T04:19:12.940Z,24.45
2023-03-15T04:21:39.728Z,27.65
2023-03-15T04:24:07.451Z,22.63
2023-03-15T04:26:34.737Z,21.38
2023-03-15T04:29:01.468Z,24.02
2023-03-15T04:31:37.749Z,22.55
2023-03-15T04:34:05.806Z,27.35
2023-03-15T04:36:32.560Z,31.85
2023-03-15T04:39:04.354Z,20.05
2023-03-15T04:41:32.048Z,26.30
2023-03-15T04:43:58.707Z,22.75
2023-03-15T04:46:25.395Z,19.30
2023-03-15T04:48:52.339Z,18.17
2023-03-15T04:51:18.990Z,17.67
2023-03-15T04:53:45.772Z,19.00
2023-03-15T04:56:12.445Z,18.10
2023-03-15T04:58:39.093Z,17.40
2023-03-15T05:01:05.773Z,18.40
2023-03-15T05:03:32.535Z,18.20
2023-03-15T05:06:01.121Z,19.50
2023-03-15T05:08:27.876Z,20.73
2023-03-15T05:10:54.970Z,16.90
2023-03-15T05:13:21.621Z,11.32
2023-03-15T05:15:48.675Z,22.92
2023-03-15T05:18:15.322Z,14.13
2023-03-15T05:20:42.212Z,19.27
2023-03-15T05:23:08.909Z,15.73
2023-03-15T05:25:38.376Z,23.90
2023-03-15T05:28:06.036Z,23.95
2023-03-15T05:30:32.757Z,22.90
2023-03-15T05:32:59.532Z,14.95
2023-03-15T05:35:26.808Z,14.85
2023-03-15T05:37:55.711Z,15.15
2023-03-15T05:40:22.465Z,17.33
2023-03-15T05:42:49.090Z,11.00
2023-03-15T05:45:15.828Z,9.40
2023-03-15T05:47:42.847Z,17.27
2023-03-15T05:50:09.992Z,17.95
2023-03-15T05:52:36.648Z,21.40
2023-03-15T05:55:03.501Z,15.32
2023-03-15T05:57:30.400Z,16.63
2023-03-15T05:59:57.204Z,18.85
2023-03-15T06:02:24.227Z,14.02
2023-03-15T06:04:51.040Z,17.77
2023-03-15T06:07:17.852Z,15.40
2023-03-15T06:09:44.588Z,23.05
2023-03-15T06:12:11.407Z,12.75
2023-03-15T06:14:38.076Z,15.80
2023-03-15T06:17:04.773Z,22.20
2023-03-15T06:19:31.513Z,13.95
2023-03-15T06:21:58.136Z,13.73
2023-03-15T06:24:25.281Z,15.63
2023-03-15T06:26:54.898Z,11.68
2023-03-15T06:29:21.941Z,16.08
2023-03-15T06:31:52.854Z,12.25
2023-03-15T06:34:21.142Z,10.77
2023-03-15T06:36:49.442Z,15.38
2023-03-15T06:39:16.272Z,12.68
2023-03-15T06:41:42.947Z,14.15
2023-03-15T06:44:10.063Z,16.45
2023-03-15T06:46:37.223Z,13.05
2023-03-15T06:49:04.066Z,14.40
2023-03-15T06:51:30.983Z,20.40
2023-03-15T06:53:57.691Z,17.13
2023-03-15T06:56:24.385Z,13.95
2023-03-15T06:58:51.070Z,8.40
2023-03-15T07:01:17.798Z,10.00
2023-03-15T07:03:44.526Z,13.73
2023-03-15T07:06:11.187Z,14.40
2023-03-15T07:08:38.110Z,13.73
2023-03-15T07:11:06.344Z,12.95
2023-03-15T07:13:33.101Z,9.90
2023-03-15T07:15:59.884Z,8.88
2023-03-15T07:18:26.640Z,13.10
2023-03-15T07:21:00.921Z,12.20
2023-03-15T07:23:28.260Z,10.88
2023-03-15T07:25:56.000Z,8.90
2023-03-15T07:28:24.299Z,7.93
2023-03-15T07:31:02.102Z,8.85
2023-03-15T07:33:30.466Z,8.90
2023-03-15T07:35:57.485Z,10.07
2023-03-15T07:38:28.941Z,9.13
2023-03-15T07:40:56.718Z,8.15
2023-03-15T07:43:24.060Z,11.90
2023-03-15T07:45:51.116Z,8.38
2023-03-15T07:48:17.827Z,9.65
2023-03-15T07:50:45.898Z,7.00
2023-03-15T07:53:12.677Z,9.98
2023-03-15T07:55:39.788Z,7.20
2023-03-15T07:58:06.546Z,9.63
2023-03-15T08:00:33.239Z,7.90
2023-03-15T08:03:00.055Z,11.02
2023-03-15T08:05:29.057Z,12.77
2023-03-15T08:07:56.720Z,9.68
2023-03-15T08:10:23.761Z,11.10
2023-03-15T08:12:50.822Z,14.20
2023-03-15T08:15:18.067Z,7.85
2023-03-15T08:17:46.722Z,12.32
2023-03-15T08:20:17.827Z,10.88
2023-03-15T08:22:46.392Z,9.48
2023-03-15T08:25:15.378Z,9.25
2023-03-15T08:27:42.309Z,8.57
2023-03-15T08:30:12.592Z,6.78
2023-03-15T08:32:44.947Z,9.38
2023-03-15T08:35:15.502Z,9.73
2023-03-15T08:37:47.799Z,8.88
2023-03-15T08:40:25.657Z,10.07
2023-03-15T08:42:56.376Z,7.28
2023-03-15T08:45:24.735Z,5.95
2023-03-15T08:47:56.848Z,9.45
2023-03-15T08:50:24.104Z,7.63
2023-03-15T08:52:51.018Z,6.35
2023-03-15T08:55:17.880Z,7.63
2023-03-15T08:57:44.772Z,6.93
2023-03-15T09:00:22.705Z,5.45
2023-03-15T09:02:52.293Z,4.95
2023-03-15T09:05:21.061Z,6.55
2023-03-15T09:07:48.606Z,7.00
2023-03-15T09:10:17.075Z,6.28
2023-03-15T09:12:45.725Z,4.55
2023-03-15T09:15:12.553Z,4.50
2023-03-15T09:17:40.190Z,5.35
2023-03-15T09:20:14.319Z,6.35
2023-03-15T09:22:42.433Z,5.40
2023-03-15T09:25:10.101Z,3.70
2023-03-15T09:27:37.225Z,5.55
2023-03-15T09:30:04.537Z,3.75
2023-03-15T09:32:36.201Z,4.18
2023-03-15T09:35:09.264Z,5.40
2023-03-15T09:37:36.057Z,4.95
2023-03-15T09:40:04.470Z,4.50
2023-03-15T09:42:53.256Z,3.25
2023-03-15T09:45:40.424Z,2.55
2023-03-15T09:48:17.686Z,5.70
2023-03-15T09:51:01.007Z,2.22
2023-03-15T09:53:39.601Z,4.13
2023-03-15T09:56:35.678Z,2.47
2023-03-15T09:59:03.464Z,2.97
2023-03-15T10:01:38.117Z,4.35
2023-03-15T10:04:42.005Z,5.88
2023-03-15T10:07:14.800Z,1.55
2023-03-15T10:09:41.548Z,2.45
2023-03-15T10:12:31.064Z,2.08
2023-03-15T10:15:19.032Z,3.67
2023-03-15T10:17:59.192Z,3.03
2023-03-15T10:20:45.029Z,3.33
2023-03-15T10:23:26.529Z,4.13
2023-03-15T10:25:54.410Z,2.25
2023-03-15T10:28:27.744Z,3.65
2023-03-15T10:30:59.551Z,3.50
2023-03-15T10:33:37.995Z,1.88
2023-03-15T10:36:17.293Z,4.07
2023-03-15T10:38:45.507Z,4.85
2023-03-15T10:41:29.064Z,8.57
2023-03-15T10:44:03.379Z,3.97
2023-03-15T10:46:30.118Z,2.60
2023-03-15T10:48:59.361Z,3.67
2023-03-15T10:51:31.605Z,3.28
2023-03-15T10:54:13.290Z,3.58
2023-03-15T10:56:59.300Z,5.18
2023-03-15T10:59:28.672Z,4.32
2023-03-15T11:02:23.878Z,2.50
2023-03-15T11:07:26.466Z,3.78
2023-03-15T11:09:59.661Z,2.60
2023-03-15T11:12:34.682Z,2.90
2023-03-15T11:15:10.957Z,2.40
2023-03-15T11:17:44.248Z,2.90
2023-03-15T11:20:36.402Z,3.22
2023-03-15T11:23:15.786Z,4.78
2023-03-15T11:25:42.995Z,2.25
2023-03-15T11:28:23.347Z,2.58
2023-03-15T11:30:50.412Z,5.90
2023-03-15T11:33:43.385Z,2.22
2023-03-15T11:36:22.523Z,2.45
2023-03-15T11:38:50.048Z,2.28
2023-03-15T11:41:35.179Z,1.60
2023-03-15T11:44:10.901Z,2.58
2023-03-15T11:46:57.766Z,2.35
2023-03-15T11:49:44.114Z,3.03
2023-03-15T11:52:10.928Z,1.75
2023-03-15T11:54:37.781Z,2.83
2023-03-15T11:57:07.618Z,2.22
2023-03-15T11:59:38.118Z,1.92
2023-03-15T12:02:11.252Z,2.13
2023-03-15T12:04:44.597Z,2.38
2023-03-15T12:07:30.004Z,2.70
2023-03-15T12:10:17.909Z,2.03
2023-03-15T12:12:58.266Z,2.13
2023-03-15T12:15:25.064Z,3.20
2023-03-15T12:17:59.709Z,1.65
2023-03-15T12:20:41.220Z,1.50
2023-03-15T12:23:16.932Z,1.70
2023-03-15T12:26:01.913Z,1.63
2023-03-15T12:28:31.642Z,2.05
2023-03-15T12:31:02.358Z,2.25
2023-03-15T12:33:32.212Z,2.33
2023-03-15T12:36:22.973Z,3.42
2023-03-15T12:39:02.353Z,2.08
2023-03-15T12:41:35.022Z,2.05
2023-03-15T12:44:20.234Z,1.42
2023-03-15T12:46:46.946Z,3.25
2023-03-15T12:49:31.118Z,0.75
2023-03-15T12:52:37.206Z,1.42
2023-03-15T12:55:16.807Z,1.45
2023-03-15T12:57:53.942Z,1.15
2023-03-15T13:00:30.435Z,1.23
2023-03-15T13:03:19.672Z,3.22
2023-03-15T13:06:08.960Z,1.70
2023-03-15T13:08:57.691Z,1.08
2023-03-15T13:11:36.720Z,2.05
2023-03-15T13:14:22.258Z,0.73
2023-03-15T13:16:58.223Z,2.22
2023-03-15T13:19:37.336Z,2.13
2023-03-15T13:22:46.747Z,1.90
2023-03-15T13:25:29.661Z,1.73
2023-03-15T13:28:05.476Z,4.10
2023-03-15T13:30:41.818Z,1.65
2023-03-15T13:33:08.466Z,1.05
2023-03-15T13:35:46.272Z,1.50
2023-03-15T13:38:27.564Z,1.55
2023-03-15T13:40:56.189Z,1.00
2023-03-15T13:43:42.341Z,2.35
2023-03-15T13:46:09.108Z,1.63
2023-03-15T13:48:39.906Z,1.50
2023-03-15T13:51:18.792Z,3.42
2023-03-15T13:53:50.196Z,1.08
2023-03-15T13:56:29.481Z,2.05
2023-03-15T13:58:57.561Z,2.33
2023-03-15T14:01:26.241Z,2.13
2023-03-15T14:04:01.848Z,1.15
2023-03-15T14:06:29.667Z,1.02
2023-03-15T14:09:06.549Z,0.60
2023-03-15T14:11:40.620Z,2.17
2023-03-15T14:14:29.185Z,1.35
2023-03-15T14:17:05.470Z,1.95
2023-03-15T14:19:35.488Z,1.27
2023-03-15T14:22:12.611Z,1.00
2023-03-15T14:24:41.667Z,1.25
2023-03-15T14:27:14.999Z,0.70
2023-03-15T14:30:13.390Z,1.65
2023-03-15T14:32:52.920Z,1.08
2023-03-15T14:35:25.472Z,2.75
2023-03-15T14:38:07.722Z,1.42
2023-03-15T14:40:38.650Z,4.65
2023-03-15T14:43:07.300Z,1.63
2023-03-15T14:45:37.260Z,1.50
2023-03-15T14:48:12.061Z,0.60
2023-03-15T14:50:41.520Z,1.67
2023-03-15T14:53:13.092Z,0.85
2023-03-15T14:55:40.839Z,1.25
2023-03-15T14:58:21.808Z,2.20
2023-03-15T15:00:54.525Z,1.80
2023-03-15T15:04:10.897Z,0.95
2023-03-15T15:06:38.299Z,1.40
2023-03-15T15:09:06.229Z,2.70
2023-03-15T15:11:33.303Z,0.85
2023-03-15T15:14:00.049Z,1.58
2023-03-15T15:16:27.100Z,1.65
2023-03-15T15:18:53.868Z,3.53
2023-03-15T15:21:33.924Z,2.17
2023-03-15T15:24:07.106Z,1.90
2023-03-15T15:26:34.428Z,1.00
2023-03-15T15:29:01.305Z,2.17
2023-03-15T15:31:29.529Z,1.92
2023-03-15T15:33:57.201Z,1.65
2023-03-15T15:36:35.895Z,0.98
2023-03-15T15:39:06.709Z,2.72
2023-03-15T15:41:34.168Z,1.90
2023-03-15T15:44:01.304Z,1.23
2023-03-15T15:46:28.310Z,0.80
2023-03-15T15:48:55.098Z,0.88
2023-03-15T15:51:27.710Z,1.85
2023-03-15T15:53:57.895Z,3.15
2023-03-15T15:56:31.854Z,0.88
2023-03-15T15:58:59.688Z,1.15
2023-03-15T16:01:26.478Z,3.17
2023-03-15T16:03:53.256Z,0.85
2023-03-15T16:06:21.362Z,0.90
2023-03-15T16:08:50.856Z,3.05
2023-03-15T16:11:18.419Z,1.45
2023-03-15T16:13:45.968Z,1.10
2023-03-15T16:16:17.391Z,0.70
2023-03-15T16:18:44.715Z,1.58
2023-03-15T16:21:24.916Z,1.75
2023-03-15T16:23:56.916Z,1.00
2023-03-15T16:26:23.820Z,1.73
2023-03-15T16:28:51.977Z,1.17
2023-03-15T16:31:22.171Z,1.25
2023-03-15T16:33:49.853Z,1.48
2023-03-15T16:36:21.495Z,1.30
2023-03-15T16:38:48.665Z,0.77
2023-03-15T16:41:16.872Z,0.88
2023-03-15T16:43:44.337Z,0.50
2023-03-15T16:46:17.691Z,1.85
2023-03-15T16:48:44.605Z,1.55
2023-03-15T16:51:15.167Z,1.52
2023-03-15T16:53:44.558Z,0.95
2023-03-15T16:56:13.523Z,3.10
2023-03-15T16:58:42.449Z,1.27
2023-03-15T17:01:10.907Z,1.45
2023-03-15T17:03:37.721Z,1.15
2023-03-15T17:06:04.660Z,2.83
2023-03-15T17:08:32.115Z,0.93
2023-03-15T17:10:59.323Z,1.45
2023-03-15T17:13:28.567Z,1.30
2023-03-15T17:15:55.373Z,1.00
2023-03-15T17:18:23.945Z,2.00
2023-03-15T17:20:51.029Z,1.05
2023-03-15T17:23:20.908Z,1.45
2023-03-15T17:25:48.331Z,1.38
2023-03-15T17:28:15.150Z,2.60
2023-03-15T17:30:42.213Z,1.95
2023-03-15T17:33:09.477Z,3.78
2023-03-15T17:35:42.028Z,3.08
2023-03-15T17:38:17.504Z,1.95
2023-03-15T17:40:44.665Z,2.33
2023-03-15T17:43:14.113Z,3.10
2023-03-15T17:45:41.220Z,3.72
2023-03-15T17:48:08.377Z,1.70
2023-03-15T17:50:35.740Z,2.30
2023-03-15T17:53:05.198Z,2.95
2023-03-15T17:55:36.156Z,2.53
2023-03-15T17:58:09.203Z,1.85
2023-03-15T18:00:36.136Z,2.25
2023-03-15T18:03:03.233Z,3.92
2023-03-15T18:05:30.036Z,2.80
2023-03-15T18:07:59.931Z,3.22
2023-03-15T18:10:36.417Z,3.47
2023-03-15T18:13:04.155Z,5.03
2023-03-15T18:15:31.562Z,2.85
2023-03-15T18:17:58.576Z,2.28
2023-03-15T18:20:26.011Z,2.83
2023-03-15T18:22:52.785Z,2.20
2023-03-15T18:25:25.736Z,2.50
2023-03-15T18:27:52.976Z,1.38
2023-03-15T18:30:22.929Z,2.78
2023-03-15T18:32:51.380Z,2.13
2023-03-15T18:35:30.185Z,2.15
2023-03-15T18:37:58.140Z,3.33
2023-03-15T18:40:27.858Z,3.03
2023-03-15T18:42:56.890Z,4.63
2023-03-15T18:45:30.619Z,3.10
2023-03-15T18:47:59.814Z,3.90
2023-03-15T18:50:27.721Z,3.30
2023-03-15T18:52:54.755Z,3.35
2023-03-15T18:55:23.066Z,2.97
2023-03-15T18:57:52.072Z,2.55
2023-03-15T19:00:26.121Z,3.03
2023-03-15T19:02:55.386Z,3.65
2023-03-15T19:05:22.289Z,4.15
2023-03-15T19:07:49.112Z,3.03
2023-03-15T19:10:19.113Z,4.38
2023-03-15T19:12:46.867Z,5.13
2023-03-15T19:15:17.530Z,3.65
2023-03-15T19:17:45.229Z,5.30
2023-03-15T19:20:13.545Z,6.38
2023-03-15T19:22:41.509Z,4.95
2023-03-15T19:25:11.641Z,5.13
2023-03-15T19:27:38.496Z,5.72
2023-03-15T19:30:08.862Z,3.97
2023-03-15T19:32:35.957Z,4.10
2023-03-15T19:35:02.998Z,3.45
2023-03-15T19:37:29.909Z,4.03
2023-03-15T19:39:56.627Z,5.07
2023-03-15T19:42:23.304Z,4.85
2023-03-15T19:44:50.009Z,5.28
2023-03-15T19:47:16.767Z,5.55
2023-03-15T19:49:43.539Z,7.47
2023-03-15T19:52:11.172Z,6.63
2023-03-15T19:54:37.895Z,5.78
2023-03-15T19:57:04.637Z,6.78
2023-03-15T19:59:35.587Z,6.45
2023-03-15T20:02:02.304Z,6.88
2023-03-15T20:04:29.039Z,7.20
2023-03-15T20:06:55.744Z,4.75
2023-03-15T20:09:22.470Z,5.57
2023-03-15T20:11:49.185Z,5.57
2023-03-15T20:14:17.041Z,4.75
2023-03-15T20:16:43.844Z,5.07
2023-03-15T20:19:10.565Z,5.10
2023-03-15T20:21:37.755Z,4.50
2023-03-15T20:24:06.789Z,7.50
2023-03-15T20:26:33.504Z,5.22
2023-03-15T20:29:01.226Z,6.43
2023-03-15T20:31:27.992Z,5.28
2023-03-15T20:33:54.739Z,5.68
2023-03-15T20:36:21.986Z,4.50
2023-03-15T20:38:48.710Z,4.75
2023-03-15T20:41:15.716Z,5.50
2023-03-15T20:43:43.125Z,5.90
2023-03-15T20:46:09.987Z,5.88
2023-03-15T20:48:37.682Z,5.40
2023-03-15T20:51:05.285Z,6.18
2023-03-15T20:53:33.723Z,4.80
2023-03-15T20:56:01.405Z,6.10
2023-03-15T20:58:28.121Z,7.07
2023-03-15T21:01:07.016Z,8.68
2023-03-15T21:03:35.170Z,7.15
2023-03-15T21:06:04.026Z,5.68
2023-03-15T21:08:31.104Z,5.70
2023-03-15T21:10:57.897Z,6.05
2023-03-15T21:13:24.788Z,6.88
2023-03-15T21:15:53.244Z,6.25
2023-03-15T21:18:22.143Z,7.57
2023-03-15T21:21:00.690Z,7.82
2023-03-15T21:23:30.950Z,7.93
2023-03-15T21:25:59.274Z,5.85
2023-03-15T21:28:26.306Z,5.50
2023-03-15T21:30:54.549Z,7.80
2023-03-15T21:33:22.912Z,7.03
2023-03-15T21:35:49.964Z,5.63
2023-03-15T21:38:17.450Z,5.63
2023-03-15T21:40:45.579Z,7.20
2023-03-15T21:43:12.377Z,6.68
2023-03-15T21:45:39.736Z,7.18
2023-03-15T21:48:07.147Z,7.70
2023-03-15T21:50:34.085Z,6.57
2023-03-15T21:53:02.007Z,4.97
2023-03-15T21:55:32.157Z,5.47
2023-03-15T21:57:59.466Z,7.25
2023-03-15T22:00:27.120Z,7.47
2023-03-15T22:02:55.682Z,7.22
2023-03-15T22:05:22.746Z,7.72
2023-03-15T22:07:49.634Z,7.80
2023-03-15T22:10:17.094Z,5.88
2023-03-15T22:12:44.181Z,6.05
2023-03-15T22:15:11.698Z,6.78
2023-03-15T22:17:38.424Z,7.32
2023-03-15T22:20:18.744Z,8.20
2023-03-15T22:22:49.269Z,6.88
2023-03-15T22:25:16.422Z,7.28
2023-03-15T22:27:43.402Z,8.10
2023-03-15T22:30:13.562Z,10.25
2023-03-15T22:32:44.221Z,7.53
2023-03-15T22:35:13.040Z,8.18
2023-03-15T22:37:40.678Z,7.03
2023-03-15T22:40:09.268Z,7.53
2023-03-15T22:42:35.950Z,6.25
2023-03-15T22:45:02.655Z,5.80
2023-03-15T22:47:29.332Z,7.45
2023-03-15T22:49:56.059Z,6.47
2023-03-15T22:52:22.759Z,8.35
2023-03-15T22:54:49.440Z,6.97
2023-03-15T22:57:16.126Z,6.68
2023-03-15T22:59:42.889Z,6.80
2023-03-15T23:02:09.765Z,7.55
2023-03-15T23:04:36.667Z,7.55
2023-03-15T23:07:03.417Z,6.72
2023-03-15T23:09:30.103Z,7.38
2023-03-15T23:11:56.848Z,8.32
2023-03-15T23:14:23.508Z,6.43
2023-03-15T23:16:53.435Z,6.35
2023-03-15T23:19:20.135Z,8.23
2023-03-15T23:21:46.845Z,7.13
2023-03-15T23:24:16.215Z,7.10
2023-03-15T23:26:43.672Z,6.82
2023-03-15T23:29:10.817Z,7.43
2023-03-15T23:31:41.959Z,6.43
2023-03-15T23:34:09.154Z,7.10
2023-03-15T23:36:35.954Z,8.32
2023-03-15T23:39:02.734Z,6.35
2023-03-15T23:41:29.525Z,7.82
2023-03-15T23:43:56.348Z,7.40
2023-03-15T23:46:25.873Z,6.70
2023-03-15T23:48:53.168Z,6.47
2023-03-15T23:51:22.076Z,7.43
2023-03-15T23:53:48.765Z,5.78
2023-03-15T23:56:15.446Z,7.82
2023-03-15T23:58:42.166Z,7.00
